ADDS - METARS form results

Aviation Digital Data Service (ADDS)

Output produced by METARs form (1152 UTC 18 August 2019)
found at http://aviationweather.gov/metar/data/
 
METAR text: KVYS 181135Z AUTO 17009KT 10SM SCT070 21/20 A2980 RMK AO2 LTG DSNT NE AND E T02100200
Conditions at: KVYS (PERU , IL, US) observed 1135 UTC 18 August 2019
Temperature: 21.0°C (70°F)
Dewpoint: 20.0°C (68°F) [RH = 94%]
Pressure (altimeter): 29.80 inches Hg (1009.2 mb)
Winds: from the S (170 degrees) at 10 MPH (9 knots; 4.6 m/s)
Visibility: 10 or more miles (16+ km)
Ceiling: at least 12,000 feet AGL
Clouds: scattered clouds at 7000 feet AGL
Weather: automated observation with no human augmentation;
there may or may not be significant weather present at this time

METAR text: KVYS 181115Z AUTO 16006KT 10SM VCTS SCT070 21/20 A2981 RMK AO2 LTG DSNT ALQS T02080200
Conditions at: KVYS (PERU , IL, US) observed 1115 UTC 18 August 2019
Temperature: 20.8°C (69°F)
Dewpoint: 20.0°C (68°F) [RH = 95%]
Pressure (altimeter): 29.81 inches Hg (1009.6 mb)
Winds: from the SSE (160 degrees) at 7 MPH (6 knots; 3.1 m/s)
Visibility: 10 or more miles (16+ km)
Ceiling: at least 12,000 feet AGL
Clouds: scattered clouds at 7000 feet AGL
Weather: VCTS  (thunderstorm in vicinity)

METAR text: KVYS 181055Z AUTO 14004KT 10SM VCTS BKN060 21/20 A2982 RMK AO2 LTG DSNT E AND S T02060197
Conditions at: KVYS (PERU , IL, US) observed 1055 UTC 18 August 2019
Temperature: 20.6°C (69°F)
Dewpoint: 19.7°C (67°F) [RH = 95%]
Pressure (altimeter): 29.82 inches Hg (1009.9 mb)
Winds: from the SE (140 degrees) at 5 MPH (4 knots; 2.1 m/s)
Visibility: 10 or more miles (16+ km)
Ceiling: 6000 feet AGL
Clouds: broken clouds at 6000 feet AGL
Weather: VCTS  (thunderstorm in vicinity)